Airfield :
LOGIN :

Register | Disclaimer

   EN    FR    IT 

 










Legend :    VFR   Marginal VFR   IFR   Intensive IFR   Very Intensive IFR
Visi :
Ceiling :
>= 8 km
>= 3000ft
5 to 8 km
1000 to 3000 ft
1500m to 5 km
500 to 1000 ft
800 to 1500m
200 to 500 ft
< 800m
< 200 ft
Symbols :   Thunderstorms  Fog  Heavy snow  Heavy precipitations  Wind > 20 kt
SIGMETs :     Misc.  Thunderstorms  Icing  Turbulence  Mountain Waves  Volcanic Ashes







- Airport Elevation : 297 ft
- IATA code : UIP
- Download approach charts


LFRQ - Quimper Pluguffan

CURRENT METAR :
  • 130600Z AUTO 11011KT 080V150 5000 -RA BR OVC005/// ///TCU 04/04 Q1004 BECMG 11018G31KT

EXPIRED METARs :
  • 130530Z AUTO 11010KT 5000 BR OVC004/// ///CB 04/04 Q1005 BECMG 11018G31KT
  • 130500Z AUTO 12012KT 090V150 4600 BR OVC003 05/04 Q1005
  • 130430Z AUTO 11011KT 4300 -RA BR OVC004/// ///TCU 05/04 Q1005
  • 130400Z AUTO 12011KT 090V160 5000 BR OVC004/// ///TCU 05/04 Q1006
  • 130330Z AUTO 12012KT 090V160 5000 BR OVC004 05/04 Q1006

TAF TAF LFRQ
Valid from the 13 at 06:00 until the 14 at 06:00 UTC


130500Z 1306/1406 11018G31KT 6000 -RA BKN010
TEMPO 1306/1318 4500 -RA OVC004 SCT010TCU
BECMG 1315/1318 08008KT
No reported NOTAMs for that airfield.



MET'MAP, your aeronautical weather chart ! - Copyright ORBIFLY December 2007 - Disclaimer

ORBIFLY MET'MAP TEAM :

Programming & Development : Alexandra Zaïnal
Concept & Development : Baudouin d'Aumeries
Co-Development & Prog : Marc-Olivier Méhu
Technical & hardware support : Manuel Goepfert

Contact : metmap@orbifly.com




SOURCES & CREDITS :

   NOAA